createdAt,value
2022-09-18T00:02:44.804Z,66.30
2022-09-18T00:06:32.878Z,66.50
2022-09-18T00:10:14.674Z,66.60
2022-09-18T00:13:56.843Z,66.60
2022-09-18T00:17:38.626Z,67.00
2022-09-18T00:21:24.558Z,67.20
2022-09-18T00:25:07.115Z,67.30
2022-09-18T00:28:48.939Z,67.60
2022-09-18T00:32:30.691Z,67.90
2022-09-18T00:36:15.967Z,67.70
2022-09-18T00:39:57.818Z,67.80
2022-09-18T00:43:39.687Z,67.80
2022-09-18T00:47:32.483Z,67.80
2022-09-18T00:51:16.704Z,68.10
2022-09-18T00:55:07.647Z,68.40
2022-09-18T00:58:49.748Z,68.50
2022-09-18T01:02:31.642Z,68.40
2022-09-18T01:06:22.677Z,68.60
2022-09-18T01:10:19.744Z,68.50
2022-09-18T01:14:10.480Z,68.90
2022-09-18T01:18:00.584Z,68.60
2022-09-18T01:21:55.214Z,68.70
2022-09-18T01:26:04.872Z,68.90
2022-09-18T01:30:02.459Z,69.00
2022-09-18T01:33:52.787Z,69.20
2022-09-18T01:37:45.688Z,69.50
2022-09-18T01:41:29.937Z,69.70
2022-09-18T01:45:16.245Z,70.00
2022-09-18T01:49:09.161Z,70.10
2022-09-18T01:53:00.193Z,70.10
2022-09-18T01:56:50.388Z,70.20
2022-09-18T02:00:32.392Z,70.50
2022-09-18T02:04:19.300Z,70.60
2022-09-18T02:08:10.467Z,70.90
2022-09-18T02:11:56.040Z,70.80
2022-09-18T02:15:41.611Z,71.00
2022-09-18T02:19:30.763Z,71.10
2022-09-18T02:23:12.776Z,71.00
2022-09-18T02:26:56.463Z,71.00
2022-09-18T02:30:39.396Z,71.20
2022-09-18T02:34:21.902Z,71.50
2022-09-18T02:38:18.923Z,71.60
2022-09-18T02:42:24.147Z,71.90
2022-09-18T02:46:14.825Z,71.80
2022-09-18T02:50:15.345Z,72.40
2022-09-18T02:53:57.637Z,71.90
2022-09-18T02:57:48.244Z,72.60
2022-09-18T03:01:32.423Z,72.90
2022-09-18T03:05:14.286Z,73.30
2022-09-18T03:08:57.443Z,73.80
2022-09-18T03:12:39.257Z,74.30
2022-09-18T03:16:21.152Z,74.80
2022-09-18T03:20:04.631Z,75.10
2022-09-18T03:23:46.447Z,75.70
2022-09-18T03:27:28.233Z,75.90
2022-09-18T03:31:10.914Z,75.90
2022-09-18T03:34:52.772Z,75.90
2022-09-18T03:38:37.758Z,75.90
2022-09-18T03:42:19.552Z,76.80
2022-09-18T03:46:01.934Z,76.40
2022-09-18T03:49:43.804Z,76.60
2022-09-18T03:53:26.103Z,76.70
2022-09-18T03:57:07.946Z,76.80
2022-09-18T04:00:49.691Z,76.90
2022-09-18T04:04:31.545Z,76.90
2022-09-18T04:08:13.331Z,76.90
2022-09-18T04:11:55.456Z,77.00
2022-09-18T04:15:37.248Z,77.20
2022-09-18T04:19:19.101Z,77.10
2022-09-18T04:23:00.887Z,77.10
2022-09-18T04:26:42.641Z,77.40
2022-09-18T04:30:24.458Z,77.50
2022-09-18T04:34:07.234Z,77.50
2022-09-18T04:37:48.986Z,77.70
2022-09-18T04:41:30.791Z,77.70
2022-09-18T04:45:13.096Z,77.70
2022-09-18T04:48:54.914Z,77.80
2022-09-18T04:52:36.786Z,77.90
2022-09-18T04:56:18.562Z,78.20
2022-09-18T05:00:00.340Z,78.20
2022-09-18T05:03:42.220Z,78.20
2022-09-18T05:07:24.028Z,78.40
2022-09-18T05:11:05.857Z,78.50
2022-09-18T05:14:47.616Z,78.50
2022-09-18T05:18:29.419Z,78.70
2022-09-18T05:22:11.258Z,78.90
2022-09-18T05:25:53.269Z,79.10
2022-09-18T05:29:35.676Z,79.40
2022-09-18T05:33:17.499Z,79.60
2022-09-18T05:36:59.420Z,79.80
2022-09-18T05:40:41.289Z,80.00
2022-09-18T05:44:23.248Z,80.20
2022-09-18T05:48:06.514Z,81.10
2022-09-18T05:51:48.288Z,80.80
2022-09-18T05:55:31.913Z,80.90
2022-09-18T05:59:14.362Z,81.00
2022-09-18T06:03:07.390Z,81.00
2022-09-18T06:06:49.330Z,80.70
2022-09-18T06:10:32.656Z,80.70
2022-09-18T06:14:15.067Z,80.90
2022-09-18T06:17:56.911Z,80.90
2022-09-18T06:21:38.727Z,80.90
2022-09-18T06:25:22.066Z,80.70
2022-09-18T06:29:03.924Z,80.90
2022-09-18T06:32:46.224Z,81.10
2022-09-18T06:36:27.967Z,81.40
2022-09-18T06:40:10.185Z,81.50
2022-09-18T06:43:51.978Z,81.70
2022-09-18T06:47:33.731Z,81.80
2022-09-18T06:51:15.576Z,82.10
2022-09-18T06:54:57.355Z,82.60
2022-09-18T06:58:39.123Z,82.70
2022-09-18T07:02:20.955Z,82.90
2022-09-18T07:06:02.769Z,83.30
2022-09-18T07:09:44.524Z,83.50
2022-09-18T07:13:26.283Z,84.00
2022-09-18T07:17:17.589Z,84.70
2022-09-18T07:21:00.960Z,85.30
2022-09-18T07:24:43.451Z,85.90
2022-09-18T07:28:25.270Z,86.20
2022-09-18T07:32:07.115Z,86.60
2022-09-18T07:35:49.158Z,87.00
2022-09-18T07:39:31.351Z,87.30
2022-09-18T07:43:13.347Z,87.80
2022-09-18T07:46:55.448Z,87.80
2022-09-18T07:50:37.404Z,88.30
2022-09-18T07:54:19.398Z,88.50
2022-09-18T07:58:04.539Z,88.90
2022-09-18T08:01:46.430Z,89.40
2022-09-18T08:05:28.410Z,89.60
2022-09-18T08:09:11.086Z,89.80
2022-09-18T08:12:55.766Z,89.90
2022-09-18T08:16:37.785Z,90.20
2022-09-18T08:20:19.799Z,90.60
2022-09-18T08:24:01.892Z,90.20
2022-09-18T08:27:44.099Z,88.70
2022-09-18T08:31:26.468Z,87.90
2022-09-18T08:35:09.425Z,86.20
2022-09-18T08:38:53.983Z,84.40
2022-09-18T08:42:38.755Z,83.10
2022-09-18T08:46:26.777Z,82.30
2022-09-18T08:50:28.343Z,81.80
2022-09-18T08:54:27.643Z,81.50
2022-09-18T08:58:17.384Z,81.20
2022-09-18T09:02:26.105Z,80.50
2022-09-18T09:06:29.755Z,79.70
2022-09-18T09:10:26.665Z,78.50
2022-09-18T09:14:55.359Z,77.60
2022-09-18T09:18:53.380Z,76.90
2022-09-18T09:22:50.292Z,76.30
2022-09-18T09:26:32.386Z,75.10
2022-09-18T09:30:19.923Z,74.90
2022-09-18T09:34:17.059Z,73.00
2022-09-18T09:38:05.832Z,70.80
2022-09-18T09:41:56.383Z,67.90
2022-09-18T09:45:48.866Z,64.90
2022-09-18T09:49:53.945Z,60.40
2022-09-18T09:53:36.471Z,56.50
2022-09-18T09:57:51.871Z,54.00
2022-09-18T10:01:45.831Z,53.00
2022-09-18T10:05:44.021Z,51.30
2022-09-18T10:09:52.839Z,49.70
2022-09-18T10:14:16.459Z,49.20
2022-09-18T10:18:01.400Z,52.20
2022-09-18T10:21:43.647Z,49.50
2022-09-18T10:25:42.013Z,49.20
2022-09-18T10:29:24.023Z,51.20
2022-09-18T10:33:34.662Z,50.50
2022-09-18T10:37:27.518Z,49.90
2022-09-18T10:41:30.113Z,49.20
2022-09-18T10:45:27.388Z,50.90
2022-09-18T10:49:34.616Z,49.20
2022-09-18T10:53:32.700Z,48.40
2022-09-18T10:57:36.030Z,43.50
2022-09-18T11:01:18.790Z,45.00
2022-09-18T11:05:03.467Z,41.70
2022-09-18T11:08:49.387Z,40.10
2022-09-18T11:12:31.230Z,41.90
2022-09-18T11:16:23.289Z,40.20
2022-09-18T11:20:07.130Z,41.50
2022-09-18T11:24:02.736Z,39.80
2022-09-18T11:27:50.619Z,42.90
2022-09-18T11:31:48.201Z,41.30
2022-09-18T11:35:31.703Z,42.70
2022-09-18T11:39:23.884Z,41.70
2022-09-18T11:43:15.833Z,44.50
2022-09-18T11:47:04.474Z,41.50
2022-09-18T11:50:48.107Z,41.10
2022-09-18T11:54:52.037Z,41.20
2022-09-18T11:58:33.792Z,43.40
2022-09-18T12:02:50.068Z,42.00
2022-09-18T12:06:39.815Z,44.60
2022-09-18T12:10:28.173Z,41.90
2022-09-18T12:14:20.330Z,41.00
2022-09-18T12:18:09.381Z,41.90
2022-09-18T12:22:12.566Z,41.90
2022-09-18T12:26:09.876Z,39.70
2022-09-18T12:30:08.219Z,39.90
2022-09-18T12:34:17.822Z,39.40
2022-09-18T12:38:21.135Z,40.80
2022-09-18T12:42:32.427Z,40.30
2022-09-18T12:46:49.539Z,42.20
2022-09-18T12:50:50.079Z,41.70
2022-09-18T12:54:31.874Z,41.90
2022-09-18T12:58:41.940Z,42.10
2022-09-18T13:02:51.488Z,41.20
2022-09-18T13:06:46.275Z,39.80
2022-09-18T13:10:32.096Z,38.40
2022-09-18T13:14:37.360Z,38.30
2022-09-18T13:18:32.547Z,39.50
2022-09-18T13:22:18.746Z,40.60
2022-09-18T13:26:04.302Z,40.80
2022-09-18T13:29:51.910Z,41.40
2022-09-18T13:33:33.756Z,41.60
2022-09-18T13:37:18.087Z,41.20
2022-09-18T13:41:00.449Z,40.30
2022-09-18T13:44:48.987Z,39.70
2022-09-18T13:48:46.867Z,37.70
2022-09-18T13:52:31.588Z,37.80
2022-09-18T13:56:15.455Z,36.00
2022-09-18T14:00:09.760Z,35.70
2022-09-18T14:03:51.538Z,35.40
2022-09-18T14:07:33.338Z,34.80
2022-09-18T14:11:25.131Z,34.50
2022-09-18T14:15:22.242Z,34.60
2022-09-18T14:19:24.994Z,35.40
2022-09-18T14:23:41.666Z,37.20
2022-09-18T14:27:38.746Z,37.90
2022-09-18T14:31:32.442Z,35.90
2022-09-18T14:35:32.187Z,34.50
2022-09-18T14:39:27.682Z,33.50
2022-09-18T14:43:22.147Z,34.40
2022-09-18T14:47:06.438Z,33.50
2022-09-18T14:51:00.018Z,33.90
2022-09-18T14:54:47.746Z,35.80
2022-09-18T14:58:38.291Z,35.80
2022-09-18T15:02:37.005Z,37.20
2022-09-18T15:06:28.584Z,37.60
2022-09-18T15:10:10.546Z,37.00
2022-09-18T15:13:55.071Z,35.60
2022-09-18T15:17:36.872Z,35.00
2022-09-18T15:21:33.754Z,33.50
2022-09-18T15:25:17.984Z,35.70
2022-09-18T15:29:01.796Z,35.70
2022-09-18T15:32:48.432Z,36.10
2022-09-18T15:36:37.119Z,36.80
2022-09-18T15:40:25.740Z,36.70
2022-09-18T15:44:39.322Z,37.10
2022-09-18T15:48:50.960Z,37.30
2022-09-18T15:52:48.155Z,37.50
2022-09-18T15:56:33.893Z,37.30
2022-09-18T16:00:25.108Z,37.60
2022-09-18T16:04:17.990Z,38.70
2022-09-18T16:08:01.835Z,38.90
2022-09-18T16:11:46.136Z,39.60
2022-09-18T16:15:29.419Z,40.70
2022-09-18T16:19:13.201Z,40.50
2022-09-18T16:23:19.612Z,41.10
2022-09-18T16:27:05.605Z,41.00
2022-09-18T16:30:48.488Z,42.40
2022-09-18T16:34:30.329Z,42.70
2022-09-18T16:38:12.132Z,42.90
2022-09-18T16:41:54.205Z,43.80
2022-09-18T16:45:36.364Z,44.40
2022-09-18T16:49:25.211Z,45.10
2022-09-18T16:53:08.341Z,44.70
2022-09-18T16:57:15.806Z,45.20
2022-09-18T17:00:58.915Z,45.00
2022-09-18T17:04:40.758Z,44.10
2022-09-18T17:08:22.582Z,43.40
2022-09-18T17:12:04.783Z,44.30
2022-09-18T17:15:46.665Z,44.20
2022-09-18T17:19:28.519Z,44.80
2022-09-18T17:23:10.293Z,45.20
2022-09-18T17:26:53.986Z,45.60
2022-09-18T17:30:39.307Z,45.30
2022-09-18T17:34:22.159Z,45.30
2022-09-18T17:38:04.559Z,45.90
2022-09-18T17:41:46.575Z,45.70
2022-09-18T17:45:28.407Z,46.30
2022-09-18T17:49:10.274Z,46.60
2022-09-18T17:52:52.111Z,46.70
2022-09-18T17:56:34.168Z,47.10
2022-09-18T18:00:16.483Z,47.00
2022-09-18T18:03:59.746Z,46.90
2022-09-18T18:07:41.537Z,47.20
2022-09-18T18:11:25.328Z,47.70
2022-09-18T18:15:07.720Z,47.80
2022-09-18T18:18:55.170Z,47.70
2022-09-18T18:22:36.915Z,48.80
2022-09-18T18:26:18.797Z,48.20
2022-09-18T18:30:00.593Z,49.00
2022-09-18T18:33:43.182Z,48.50
2022-09-18T18:37:25.035Z,48.80
2022-09-18T18:41:07.733Z,48.90
2022-09-18T18:44:49.517Z,49.30
2022-09-18T18:48:32.212Z,49.90
2022-09-18T18:52:13.999Z,49.60
2022-09-18T18:56:07.359Z,52.50
2022-09-18T18:59:49.731Z,54.30
2022-09-18T19:03:31.598Z,54.40
2022-09-18T19:07:13.399Z,55.10
2022-09-18T19:10:59.534Z,55.40
2022-09-18T19:14:42.049Z,53.60
2022-09-18T19:18:24.038Z,54.10
2022-09-18T19:22:06.068Z,54.70
2022-09-18T19:25:47.954Z,55.40
2022-09-18T19:29:30.579Z,55.90
2022-09-18T19:33:15.471Z,56.30
2022-09-18T19:36:58.029Z,56.80
2022-09-18T19:40:40.393Z,57.50
2022-09-18T19:44:36.340Z,57.60
2022-09-18T19:48:25.252Z,57.30
2022-09-18T19:52:20.056Z,58.00
2022-09-18T19:56:15.070Z,58.10
2022-09-18T20:00:05.613Z,58.90
2022-09-18T20:03:53.218Z,59.20
2022-09-18T20:07:36.331Z,59.40
2022-09-18T20:11:18.420Z,59.90
2022-09-18T20:15:02.416Z,60.30
2022-09-18T20:18:44.841Z,60.60
2022-09-18T20:22:27.355Z,61.10
2022-09-18T20:26:17.883Z,61.20
2022-09-18T20:29:59.692Z,62.30
2022-09-18T20:33:41.506Z,61.90
2022-09-18T20:37:26.160Z,62.40
2022-09-18T20:41:13.256Z,63.00
2022-09-18T20:44:55.490Z,63.40
2022-09-18T20:48:41.446Z,63.60
2022-09-18T20:52:23.623Z,63.80
2022-09-18T20:56:06.927Z,64.10
2022-09-18T20:59:49.350Z,64.80
2022-09-18T21:03:31.141Z,65.00
2022-09-18T21:07:13.039Z,65.10
2022-09-18T21:10:54.799Z,65.30
2022-09-18T21:14:36.990Z,65.70
2022-09-18T21:18:19.157Z,65.90
2022-09-18T21:22:01.011Z,66.50
2022-09-18T21:25:43.006Z,67.50
2022-09-18T21:29:26.857Z,68.20
2022-09-18T21:33:11.075Z,69.00
2022-09-18T21:36:58.311Z,69.10
2022-09-18T21:40:40.137Z,69.00
2022-09-18T21:44:27.308Z,69.20
2022-09-18T21:48:09.252Z,69.50
2022-09-18T21:51:54.935Z,69.80
2022-09-18T21:55:38.278Z,69.80
2022-09-18T21:59:25.201Z,69.60
2022-09-18T22:03:06.967Z,70.20
2022-09-18T22:06:49.885Z,69.30
2022-09-18T22:10:33.707Z,69.80
2022-09-18T22:14:22.821Z,69.80
2022-09-18T22:18:04.750Z,69.80
2022-09-18T22:21:50.030Z,69.70
2022-09-18T22:25:33.522Z,69.90
2022-09-18T22:29:18.325Z,70.00
2022-09-18T22:33:00.389Z,69.90
2022-09-18T22:36:42.199Z,70.10
2022-09-18T22:40:24.145Z,70.10
2022-09-18T22:44:07.359Z,69.90
2022-09-18T22:47:49.130Z,69.50
2022-09-18T22:51:30.974Z,69.80
2022-09-18T22:55:12.758Z,69.80
2022-09-18T22:58:55.945Z,69.70
2022-09-18T23:02:38.879Z,70.30
2022-09-18T23:06:25.359Z,70.50
2022-09-18T23:10:08.088Z,70.70
2022-09-18T23:13:52.773Z,70.80
2022-09-18T23:17:34.939Z,71.00
2022-09-18T23:21:17.203Z,71.20
2022-09-18T23:24:58.981Z,71.50
2022-09-18T23:28:43.656Z,71.50
2022-09-18T23:32:25.698Z,71.50
2022-09-18T23:36:14.043Z,71.50
2022-09-18T23:39:55.900Z,71.70
2022-09-18T23:43:38.872Z,71.50
2022-09-18T23:47:20.631Z,71.40
2022-09-18T23:51:02.847Z,71.50
2022-09-18T23:54:44.639Z,71.70
2022-09-18T23:58:26.376Z,71.70
